sensor_id;sensor_type;location;lat;lon;timestamp;temperature;humidity
4820;DHT22;2424;49.696;6.630;2022-12-17T00:03:53;-7.10;99.90
4820;DHT22;2424;49.696;6.630;2022-12-17T00:09:32;-7.20;99.90
4820;DHT22;2424;49.696;6.630;2022-12-17T00:15:13;-7.20;99.90
4820;DHT22;2424;49.696;6.630;2022-12-17T00:20:53;-7.30;99.90
4820;DHT22;2424;49.696;6.630;2022-12-17T00:26:33;-7.30;99.90
4820;DHT22;2424;49.696;6.630;2022-12-17T00:32:14;-7.30;99.90
4820;DHT22;2424;49.696;6.630;2022-12-17T00:37:53;-7.50;99.90
4820;DHT22;2424;49.696;6.630;2022-12-17T00:43:32;-7.50;99.90
4820;DHT22;2424;49.696;6.630;2022-12-17T00:49:13;-7.50;99.90
4820;DHT22;2424;49.696;6.630;2022-12-17T00:54:53;-7.50;99.90
4820;DHT22;2424;49.696;6.630;2022-12-17T01:00:32;-7.60;99.90
4820;DHT22;2424;49.696;6.630;2022-12-17T01:06:13;-7.60;99.90
4820;DHT22;2424;49.696;6.630;2022-12-17T01:11:52;-7.60;99.90
4820;DHT22;2424;49.696;6.630;2022-12-17T01:17:31;-7.60;99.90
4820;DHT22;2424;49.696;6.630;2022-12-17T01:23:12;-7.70;99.90
4820;DHT22;2424;49.696;6.630;2022-12-17T01:28:52;-7.60;99.90
4820;DHT22;2424;49.696;6.630;2022-12-17T01:34:31;-7.60;99.90
4820;DHT22;2424;49.696;6.630;2022-12-17T01:40:12;-7.60;99.90
4820;DHT22;2424;49.696;6.630;2022-12-17T01:45:52;-7.60;99.90
4820;DHT22;2424;49.696;6.630;2022-12-17T01:51:31;-7.60;99.90
4820;DHT22;2424;49.696;6.630;2022-12-17T01:57:14;-7.70;99.90
4820;DHT22;2424;49.696;6.630;2022-12-17T02:02:53;-7.70;99.90
4820;DHT22;2424;49.696;6.630;2022-12-17T02:08:37;-7.80;99.90
4820;DHT22;2424;49.696;6.630;2022-12-17T02:14:24;-7.80;99.90
4820;DHT22;2424;49.696;6.630;2022-12-17T02:20:17;-7.90;99.90
4820;DHT22;2424;49.696;6.630;2022-12-17T02:26:01;-7.90;99.90
4820;DHT22;2424;49.696;6.630;2022-12-17T02:31:44;-7.80;99.90
4820;DHT22;2424;49.696;6.630;2022-12-17T02:37:24;-7.90;99.90
4820;DHT22;2424;49.696;6.630;2022-12-17T02:43:05;-7.90;99.90
4820;DHT22;2424;49.696;6.630;2022-12-17T02:48:46;-7.90;99.90
4820;DHT22;2424;49.696;6.630;2022-12-17T02:54:28;-7.90;99.90
4820;DHT22;2424;49.696;6.630;2022-12-17T03:00:22;-8.00;99.90
4820;DHT22;2424;49.696;6.630;2022-12-17T03:06:03;-8.00;99.90
4820;DHT22;2424;49.696;6.630;2022-12-17T03:11:43;-7.90;99.90
4820;DHT22;2424;49.696;6.630;2022-12-17T03:17:22;-7.90;99.90
4820;DHT22;2424;49.696;6.630;2022-12-17T03:23:04;-7.90;99.90
4820;DHT22;2424;49.696;6.630;2022-12-17T03:28:45;-7.80;99.90
4820;DHT22;2424;49.696;6.630;2022-12-17T03:34:24;-7.80;99.90
4820;DHT22;2424;49.696;6.630;2022-12-17T03:40:06;-7.80;99.90
4820;DHT22;2424;49.696;6.630;2022-12-17T03:45:51;-7.80;99.90
4820;DHT22;2424;49.696;6.630;2022-12-17T03:51:30;-7.80;99.90
4820;DHT22;2424;49.696;6.630;2022-12-17T03:57:11;-7.90;99.90
4820;DHT22;2424;49.696;6.630;2022-12-17T04:02:50;-7.90;99.90
4820;DHT22;2424;49.696;6.630;2022-12-17T04:08:29;-7.90;99.90
4820;DHT22;2424;49.696;6.630;2022-12-17T04:14:10;-8.00;99.90
4820;DHT22;2424;49.696;6.630;2022-12-17T04:19:49;-8.00;99.90
4820;DHT22;2424;49.696;6.630;2022-12-17T04:25:29;-8.10;99.90
4820;DHT22;2424;49.696;6.630;2022-12-17T04:31:09;-8.10;99.90
4820;DHT22;2424;49.696;6.630;2022-12-17T04:37:03;-8.20;99.90
4820;DHT22;2424;49.696;6.630;2022-12-17T04:42:43;-8.20;99.90
4820;DHT22;2424;49.696;6.630;2022-12-17T04:48:24;-8.20;99.90
4820;DHT22;2424;49.696;6.630;2022-12-17T04:54:03;-8.30;99.90
4820;DHT22;2424;49.696;6.630;2022-12-17T04:59:42;-8.40;99.90
4820;DHT22;2424;49.696;6.630;2022-12-17T05:05:26;-8.40;99.90
4820;DHT22;2424;49.696;6.630;2022-12-17T05:11:06;-8.40;99.90
4820;DHT22;2424;49.696;6.630;2022-12-17T05:16:45;-8.40;99.90
4820;DHT22;2424;49.696;6.630;2022-12-17T05:22:26;-8.30;99.90
4820;DHT22;2424;49.696;6.630;2022-12-17T05:28:06;-8.30;99.90
4820;DHT22;2424;49.696;6.630;2022-12-17T05:33:45;-8.20;99.90
4820;DHT22;2424;49.696;6.630;2022-12-17T05:39:26;-8.10;99.90
4820;DHT22;2424;49.696;6.630;2022-12-17T05:45:06;-8.10;99.90
4820;DHT22;2424;49.696;6.630;2022-12-17T05:50:48;-8.00;99.90
4820;DHT22;2424;49.696;6.630;2022-12-17T05:56:29;-8.00;99.90
4820;DHT22;2424;49.696;6.630;2022-12-17T06:02:09;-8.00;99.90
4820;DHT22;2424;49.696;6.630;2022-12-17T06:07:48;-8.00;99.90
4820;DHT22;2424;49.696;6.630;2022-12-17T06:13:29;-8.00;99.90
4820;DHT22;2424;49.696;6.630;2022-12-17T06:19:08;-8.00;99.90
4820;DHT22;2424;49.696;6.630;2022-12-17T06:24:47;-7.90;99.90
4820;DHT22;2424;49.696;6.630;2022-12-17T06:30:28;-7.80;99.90
4820;DHT22;2424;49.696;6.630;2022-12-17T06:36:08;-7.70;99.90
4820;DHT22;2424;49.696;6.630;2022-12-17T06:41:47;-7.70;99.90
4820;DHT22;2424;49.696;6.630;2022-12-17T06:47:28;-7.70;99.90
4820;DHT22;2424;49.696;6.630;2022-12-17T06:53:09;-7.70;99.90
4820;DHT22;2424;49.696;6.630;2022-12-17T06:58:49;-7.70;99.90
4820;DHT22;2424;49.696;6.630;2022-12-17T07:04:30;-7.70;99.90
4820;DHT22;2424;49.696;6.630;2022-12-17T07:10:09;-7.70;99.90
4820;DHT22;2424;49.696;6.630;2022-12-17T07:15:50;-7.70;99.90
4820;DHT22;2424;49.696;6.630;2022-12-17T07:21:30;-7.80;99.90
4820;DHT22;2424;49.696;6.630;2022-12-17T07:27:10;-7.80;99.90
4820;DHT22;2424;49.696;6.630;2022-12-17T07:32:57;-7.80;99.90
4820;DHT22;2424;49.696;6.630;2022-12-17T07:38:39;-7.90;99.90
4820;DHT22;2424;49.696;6.630;2022-12-17T07:44:18;-7.90;99.90
4820;DHT22;2424;49.696;6.630;2022-12-17T07:49:58;-7.80;99.90
4820;DHT22;2424;49.696;6.630;2022-12-17T07:55:39;-7.80;99.90
4820;DHT22;2424;49.696;6.630;2022-12-17T08:01:19;-7.70;99.90
4820;DHT22;2424;49.696;6.630;2022-12-17T08:06:55;-7.70;99.90
4820;DHT22;2424;49.696;6.630;2022-12-17T08:12:36;-7.70;99.90
4820;DHT22;2424;49.696;6.630;2022-12-17T08:18:15;-7.50;99.90
4820;DHT22;2424;49.696;6.630;2022-12-17T08:23:55;-7.40;99.90
4820;DHT22;2424;49.696;6.630;2022-12-17T08:29:35;-7.30;99.90
4820;DHT22;2424;49.696;6.630;2022-12-17T08:35:15;-7.30;99.90
4820;DHT22;2424;49.696;6.630;2022-12-17T08:40:55;-7.30;99.90
4820;DHT22;2424;49.696;6.630;2022-12-17T08:46:35;-7.30;99.90
4820;DHT22;2424;49.696;6.630;2022-12-17T08:52:15;-7.50;99.90
4820;DHT22;2424;49.696;6.630;2022-12-17T08:57:55;-7.40;99.90
4820;DHT22;2424;49.696;6.630;2022-12-17T09:03:37;-7.30;99.90
4820;DHT22;2424;49.696;6.630;2022-12-17T09:09:16;-7.20;99.90
4820;DHT22;2424;49.696;6.630;2022-12-17T09:14:56;-7.20;99.90
4820;DHT22;2424;49.696;6.630;2022-12-17T09:20:37;-7.10;99.90
4820;DHT22;2424;49.696;6.630;2022-12-17T09:26:16;-7.30;99.90
4820;DHT22;2424;49.696;6.630;2022-12-17T09:31:56;-7.30;99.90
4820;DHT22;2424;49.696;6.630;2022-12-17T09:37:36;-7.30;99.90
4820;DHT22;2424;49.696;6.630;2022-12-17T09:43:25;-6.90;99.90
4820;DHT22;2424;49.696;6.630;2022-12-17T09:49:14;-6.80;99.90
4820;DHT22;2424;49.696;6.630;2022-12-17T09:54:57;-6.70;99.90
4820;DHT22;2424;49.696;6.630;2022-12-17T10:00:36;-6.80;99.90
4820;DHT22;2424;49.696;6.630;2022-12-17T10:06:17;-6.70;99.90
4820;DHT22;2424;49.696;6.630;2022-12-17T10:12:10;-6.70;99.90
4820;DHT22;2424;49.696;6.630;2022-12-17T10:17:50;-6.50;99.90
4820;DHT22;2424;49.696;6.630;2022-12-17T10:23:31;-6.50;99.90
4820;DHT22;2424;49.696;6.630;2022-12-17T10:29:14;-6.30;99.90
4820;DHT22;2424;49.696;6.630;2022-12-17T10:34:53;-6.20;99.90
4820;DHT22;2424;49.696;6.630;2022-12-17T10:40:33;-6.30;99.90
4820;DHT22;2424;49.696;6.630;2022-12-17T10:46:24;-6.30;99.90
4820;DHT22;2424;49.696;6.630;2022-12-17T10:52:06;-6.20;99.90
4820;DHT22;2424;49.696;6.630;2022-12-17T10:58:01;-6.30;99.90
4820;DHT22;2424;49.696;6.630;2022-12-17T11:03:49;-6.20;99.90
4820;DHT22;2424;49.696;6.630;2022-12-17T11:09:38;-6.10;99.90
4820;DHT22;2424;49.696;6.630;2022-12-17T11:15:21;-5.80;99.90
4820;DHT22;2424;49.696;6.630;2022-12-17T11:21:08;-5.70;99.90
4820;DHT22;2424;49.696;6.630;2022-12-17T11:26:52;-5.40;99.90
4820;DHT22;2424;49.696;6.630;2022-12-17T11:32:54;-5.10;99.90
4820;DHT22;2424;49.696;6.630;2022-12-17T11:38:40;-4.90;99.90
4820;DHT22;2424;49.696;6.630;2022-12-17T11:44:39;-4.70;99.90
4820;DHT22;2424;49.696;6.630;2022-12-17T11:50:41;-4.50;99.90
4820;DHT22;2424;49.696;6.630;2022-12-17T11:56:26;-4.50;99.90
4820;DHT22;2424;49.696;6.630;2022-12-17T12:02:16;-4.60;99.90
4820;DHT22;2424;49.696;6.630;2022-12-17T12:08:07;-4.60;99.90
4820;DHT22;2424;49.696;6.630;2022-12-17T12:13:56;-4.50;99.90
4820;DHT22;2424;49.696;6.630;2022-12-17T12:19:46;-4.50;99.90
4820;DHT22;2424;49.696;6.630;2022-12-17T12:25:35;-4.50;99.90
4820;DHT22;2424;49.696;6.630;2022-12-17T12:31:25;-4.40;99.90
4820;DHT22;2424;49.696;6.630;2022-12-17T12:37:12;-4.10;99.90
4820;DHT22;2424;49.696;6.630;2022-12-17T12:42:55;-4.40;99.90
4820;DHT22;2424;49.696;6.630;2022-12-17T12:48:43;-4.30;99.90
4820;DHT22;2424;49.696;6.630;2022-12-17T12:54:26;-4.50;99.90
4820;DHT22;2424;49.696;6.630;2022-12-17T13:00:24;-4.80;99.90
4820;DHT22;2424;49.696;6.630;2022-12-17T13:06:06;-5.00;99.90
4820;DHT22;2424;49.696;6.630;2022-12-17T13:11:34;-4.90;99.90
4820;DHT22;2424;49.696;6.630;2022-12-17T13:17:01;-4.80;99.90
4820;DHT22;2424;49.696;6.630;2022-12-17T13:22:31;-4.60;99.90
4820;DHT22;2424;49.696;6.630;2022-12-17T13:27:53;-4.40;99.90
4820;DHT22;2424;49.696;6.630;2022-12-17T13:33:22;-4.50;99.90
4820;DHT22;2424;49.696;6.630;2022-12-17T13:38:56;-4.50;99.90
4820;DHT22;2424;49.696;6.630;2022-12-17T13:44:22;-4.30;99.90
4820;DHT22;2424;49.696;6.630;2022-12-17T13:49:49;-4.40;99.90
4820;DHT22;2424;49.696;6.630;2022-12-17T13:55:18;-4.30;99.90
4820;DHT22;2424;49.696;6.630;2022-12-17T14:00:40;-4.00;99.90
4820;DHT22;2424;49.696;6.630;2022-12-17T14:06:03;-3.70;99.90
4820;DHT22;2424;49.696;6.630;2022-12-17T14:11:30;-3.40;99.90
4820;DHT22;2424;49.696;6.630;2022-12-17T14:17:17;-3.60;99.90
4820;DHT22;2424;49.696;6.630;2022-12-17T14:22:41;-3.80;99.90
4820;DHT22;2424;49.696;6.630;2022-12-17T14:28:18;-3.70;99.90
4820;DHT22;2424;49.696;6.630;2022-12-17T14:33:42;-3.60;99.90
4820;DHT22;2424;49.696;6.630;2022-12-17T14:39:15;-3.30;99.90
4820;DHT22;2424;49.696;6.630;2022-12-17T14:44:47;-3.60;99.90
4820;DHT22;2424;49.696;6.630;2022-12-17T14:50:28;-3.90;99.90
4820;DHT22;2424;49.696;6.630;2022-12-17T14:55:53;-3.90;99.90
4820;DHT22;2424;49.696;6.630;2022-12-17T15:01:17;-4.20;99.90
4820;DHT22;2424;49.696;6.630;2022-12-17T15:06:39;-4.30;99.90
4820;DHT22;2424;49.696;6.630;2022-12-17T15:12:02;-4.40;99.90
4820;DHT22;2424;49.696;6.630;2022-12-17T15:17:25;-4.50;99.90
4820;DHT22;2424;49.696;6.630;2022-12-17T15:22:47;-4.60;99.90
4820;DHT22;2424;49.696;6.630;2022-12-17T15:28:09;-4.70;99.90
4820;DHT22;2424;49.696;6.630;2022-12-17T15:33:33;-4.80;99.90
4820;DHT22;2424;49.696;6.630;2022-12-17T15:38:55;-4.80;99.90
4820;DHT22;2424;49.696;6.630;2022-12-17T15:44:17;-4.90;99.90
4820;DHT22;2424;49.696;6.630;2022-12-17T15:49:41;-5.20;99.90
4820;DHT22;2424;49.696;6.630;2022-12-17T15:55:08;-5.20;99.90
4820;DHT22;2424;49.696;6.630;2022-12-17T16:00:30;-5.40;99.90
4820;DHT22;2424;49.696;6.630;2022-12-17T16:05:54;-5.60;99.90
4820;DHT22;2424;49.696;6.630;2022-12-17T16:11:16;-5.70;99.90
4820;DHT22;2424;49.696;6.630;2022-12-17T16:16:38;-5.70;99.90
4820;DHT22;2424;49.696;6.630;2022-12-17T16:22:01;-5.70;99.90
4820;DHT22;2424;49.696;6.630;2022-12-17T16:27:23;-5.90;99.90
4820;DHT22;2424;49.696;6.630;2022-12-17T16:32:45;-6.00;99.90
4820;DHT22;2424;49.696;6.630;2022-12-17T16:38:09;-6.10;99.90
4820;DHT22;2424;49.696;6.630;2022-12-17T16:43:32;-6.20;99.90
4820;DHT22;2424;49.696;6.630;2022-12-17T16:48:56;-6.30;99.90
4820;DHT22;2424;49.696;6.630;2022-12-17T16:54:21;-6.30;99.90
4820;DHT22;2424;49.696;6.630;2022-12-17T16:59:45;-6.40;99.90
4820;DHT22;2424;49.696;6.630;2022-12-17T17:05:07;-6.50;99.90
4820;DHT22;2424;49.696;6.630;2022-12-17T17:10:34;-6.50;99.90
4820;DHT22;2424;49.696;6.630;2022-12-17T17:15:56;-6.60;99.90
4820;DHT22;2424;49.696;6.630;2022-12-17T17:21:24;-6.70;99.90
4820;DHT22;2424;49.696;6.630;2022-12-17T17:26:50;-6.70;99.90
4820;DHT22;2424;49.696;6.630;2022-12-17T17:32:12;-6.80;99.90
4820;DHT22;2424;49.696;6.630;2022-12-17T17:37:34;-6.80;99.90
4820;DHT22;2424;49.696;6.630;2022-12-17T17:42:58;-6.80;99.90
4820;DHT22;2424;49.696;6.630;2022-12-17T17:48:20;-6.90;99.90
4820;DHT22;2424;49.696;6.630;2022-12-17T17:53:43;-6.90;99.90
4820;DHT22;2424;49.696;6.630;2022-12-17T17:59:08;-7.00;99.90
4820;DHT22;2424;49.696;6.630;2022-12-17T18:04:31;-7.00;99.90
4820;DHT22;2424;49.696;6.630;2022-12-17T18:09:53;-7.10;99.90
4820;DHT22;2424;49.696;6.630;2022-12-17T18:15:17;-7.00;99.90
4820;DHT22;2424;49.696;6.630;2022-12-17T18:20:39;-7.10;99.90
4820;DHT22;2424;49.696;6.630;2022-12-17T18:26:06;-7.10;99.90
4820;DHT22;2424;49.696;6.630;2022-12-17T18:31:30;-7.20;99.90
4820;DHT22;2424;49.696;6.630;2022-12-17T18:36:52;-7.30;99.90
4820;DHT22;2424;49.696;6.630;2022-12-17T18:42:14;-7.30;99.90
4820;DHT22;2424;49.696;6.630;2022-12-17T18:47:55;-7.40;99.90
4820;DHT22;2424;49.696;6.630;2022-12-17T18:53:17;-7.40;99.90
4820;DHT22;2424;49.696;6.630;2022-12-17T18:58:39;-7.40;99.90
4820;DHT22;2424;49.696;6.630;2022-12-17T19:04:04;-7.50;99.90
4820;DHT22;2424;49.696;6.630;2022-12-17T19:09:29;-7.50;99.90
4820;DHT22;2424;49.696;6.630;2022-12-17T19:14:54;-7.60;99.90
4820;DHT22;2424;49.696;6.630;2022-12-17T19:20:18;-7.60;99.90
4820;DHT22;2424;49.696;6.630;2022-12-17T19:25:40;-7.70;99.90
4820;DHT22;2424;49.696;6.630;2022-12-17T19:31:02;-7.70;99.90
4820;DHT22;2424;49.696;6.630;2022-12-17T19:36:27;-7.80;99.90
4820;DHT22;2424;49.696;6.630;2022-12-17T19:41:49;-7.80;99.90
4820;DHT22;2424;49.696;6.630;2022-12-17T19:47:11;-7.80;99.90
4820;DHT22;2424;49.696;6.630;2022-12-17T19:52:35;-7.80;99.90
4820;DHT22;2424;49.696;6.630;2022-12-17T19:57:57;-7.90;99.90
4820;DHT22;2424;49.696;6.630;2022-12-17T20:03:19;-8.00;99.90
4820;DHT22;2424;49.696;6.630;2022-12-17T20:08:42;-8.00;99.90
4820;DHT22;2424;49.696;6.630;2022-12-17T20:14:07;-8.00;99.90
4820;DHT22;2424;49.696;6.630;2022-12-17T20:19:30;-8.00;99.90
4820;DHT22;2424;49.696;6.630;2022-12-17T20:24:54;-8.00;99.90
4820;DHT22;2424;49.696;6.630;2022-12-17T20:30:16;-8.10;99.90
4820;DHT22;2424;49.696;6.630;2022-12-17T20:35:38;-8.10;99.90
4820;DHT22;2424;49.696;6.630;2022-12-17T20:41:07;-8.30;99.90
4820;DHT22;2424;49.696;6.630;2022-12-17T20:46:30;-8.20;99.90
4820;DHT22;2424;49.696;6.630;2022-12-17T20:51:52;-8.20;99.90
4820;DHT22;2424;49.696;6.630;2022-12-17T20:57:15;-8.30;99.90
4820;DHT22;2424;49.696;6.630;2022-12-17T21:02:37;-8.40;99.90
4820;DHT22;2424;49.696;6.630;2022-12-17T21:07:59;-8.40;99.90
4820;DHT22;2424;49.696;6.630;2022-12-17T21:13:23;-8.40;99.90
4820;DHT22;2424;49.696;6.630;2022-12-17T21:18:51;-8.40;99.90
4820;DHT22;2424;49.696;6.630;2022-12-17T21:24:14;-8.40;99.90
4820;DHT22;2424;49.696;6.630;2022-12-17T21:29:37;-8.40;99.90
4820;DHT22;2424;49.696;6.630;2022-12-17T21:34:59;-8.50;99.90
4820;DHT22;2424;49.696;6.630;2022-12-17T21:40:21;-8.40;99.90
4820;DHT22;2424;49.696;6.630;2022-12-17T21:45:45;-8.50;99.90
4820;DHT22;2424;49.696;6.630;2022-12-17T21:51:09;-8.50;99.90
4820;DHT22;2424;49.696;6.630;2022-12-17T21:56:32;-8.50;99.90
4820;DHT22;2424;49.696;6.630;2022-12-17T22:01:55;-8.60;99.90
4820;DHT22;2424;49.696;6.630;2022-12-17T22:07:17;-8.60;99.90
4820;DHT22;2424;49.696;6.630;2022-12-17T22:12:40;-8.60;99.90
4820;DHT22;2424;49.696;6.630;2022-12-17T22:18:21;-8.60;99.90
4820;DHT22;2424;49.696;6.630;2022-12-17T22:23:45;-8.60;99.90
4820;DHT22;2424;49.696;6.630;2022-12-17T22:29:08;-8.70;99.90
4820;DHT22;2424;49.696;6.630;2022-12-17T22:34:31;-8.60;99.90
4820;DHT22;2424;49.696;6.630;2022-12-17T22:39:53;-8.70;99.90
4820;DHT22;2424;49.696;6.630;2022-12-17T22:45:15;-8.70;99.90
4820;DHT22;2424;49.696;6.630;2022-12-17T22:50:39;-8.80;99.90
4820;DHT22;2424;49.696;6.630;2022-12-17T22:56:03;-8.80;99.90
4820;DHT22;2424;49.696;6.630;2022-12-17T23:01:26;-8.80;99.90
4820;DHT22;2424;49.696;6.630;2022-12-17T23:06:49;-8.80;99.90
4820;DHT22;2424;49.696;6.630;2022-12-17T23:12:11;-8.80;99.90
4820;DHT22;2424;49.696;6.630;2022-12-17T23:17:52;-8.80;99.90
4820;DHT22;2424;49.696;6.630;2022-12-17T23:23:16;-8.80;99.90
4820;DHT22;2424;49.696;6.630;2022-12-17T23:28:39;-8.80;99.90
4820;DHT22;2424;49.696;6.630;2022-12-17T23:34:01;-8.80;99.90
4820;DHT22;2424;49.696;6.630;2022-12-17T23:39:24;-8.80;99.90
4820;DHT22;2424;49.696;6.630;2022-12-17T23:44:46;-8.80;99.90
4820;DHT22;2424;49.696;6.630;2022-12-17T23:50:10;-8.80;99.90
4820;DHT22;2424;49.696;6.630;2022-12-17T23:55:33;-8.80;99.90
